sensor_id;sensor_type;location;lat;lon;timestamp;P1;durP1;ratioP1;P2;durP2;ratioP2
2187;SDS011;1100;52.014;8.540;2022-12-29T00:01:09;3.23;;;0.70;;
2187;SDS011;1100;52.014;8.540;2022-12-29T00:03:34;3.20;;;0.70;;
2187;SDS011;1100;52.014;8.540;2022-12-29T00:05:59;2.97;;;0.50;;
2187;SDS011;1100;52.014;8.540;2022-12-29T00:08:25;3.80;;;0.60;;
2187;SDS011;1100;52.014;8.540;2022-12-29T00:11:16;2.92;;;0.60;;
2187;SDS011;1100;52.014;8.540;2022-12-29T00:13:44;3.50;;;0.75;;
2187;SDS011;1100;52.014;8.540;2022-12-29T00:16:28;3.15;;;0.70;;
2187;SDS011;1100;52.014;8.540;2022-12-29T00:18:54;2.47;;;0.50;;
2187;SDS011;1100;52.014;8.540;2022-12-29T00:21:20;3.08;;;0.63;;
2187;SDS011;1100;52.014;8.540;2022-12-29T00:24:05;2.90;;;0.50;;
2187;SDS011;1100;52.014;8.540;2022-12-29T00:26:34;4.03;;;0.88;;
2187;SDS011;1100;52.014;8.540;2022-12-29T00:29:25;2.47;;;0.47;;
2187;SDS011;1100;52.014;8.540;2022-12-29T00:32:09;3.22;;;0.70;;
2187;SDS011;1100;52.014;8.540;2022-12-29T00:34:53;2.83;;;0.60;;
2187;SDS011;1100;52.014;8.540;2022-12-29T00:37:37;4.23;;;1.10;;
2187;SDS011;1100;52.014;8.540;2022-12-29T00:40:25;3.72;;;0.65;;
2187;SDS011;1100;52.014;8.540;2022-12-29T00:43:09;2.83;;;0.50;;
2187;SDS011;1100;52.014;8.540;2022-12-29T00:45:53;3.67;;;0.70;;
2187;SDS011;1100;52.014;8.540;2022-12-29T00:48:18;3.30;;;0.50;;
2187;SDS011;1100;52.014;8.540;2022-12-29T00:51:03;3.67;;;0.57;;
2187;SDS011;1100;52.014;8.540;2022-12-29T00:53:29;2.50;;;0.57;;
2187;SDS011;1100;52.014;8.540;2022-12-29T00:55:54;2.73;;;0.53;;
2187;SDS011;1100;52.014;8.540;2022-12-29T00:58:19;2.60;;;0.50;;
2187;SDS011;1100;52.014;8.540;2022-12-29T01:00:45;2.50;;;0.40;;
2187;SDS011;1100;52.014;8.540;2022-12-29T01:03:10;2.67;;;0.50;;
2187;SDS011;1100;52.014;8.540;2022-12-29T01:05:36;2.83;;;0.60;;
2187;SDS011;1100;52.014;8.540;2022-12-29T01:08:01;2.42;;;0.50;;
2187;SDS011;1100;52.014;8.540;2022-12-29T01:10:27;2.53;;;0.40;;
2187;SDS011;1100;52.014;8.540;2022-12-29T01:12:52;3.30;;;0.50;;
2187;SDS011;1100;52.014;8.540;2022-12-29T01:15:17;2.45;;;0.50;;
2187;SDS011;1100;52.014;8.540;2022-12-29T01:17:43;3.63;;;0.40;;
2187;SDS011;1100;52.014;8.540;2022-12-29T01:20:08;2.00;;;0.40;;
2187;SDS011;1100;52.014;8.540;2022-12-29T01:22:35;2.80;;;0.50;;
2187;SDS011;1100;52.014;8.540;2022-12-29T01:25:01;2.53;;;0.57;;
2187;SDS011;1100;52.014;8.540;2022-12-29T01:27:26;2.30;;;0.30;;
2187;SDS011;1100;52.014;8.540;2022-12-29T01:29:52;2.23;;;0.50;;
2187;SDS011;1100;52.014;8.540;2022-12-29T01:32:17;4.50;;;0.50;;
2187;SDS011;1100;52.014;8.540;2022-12-29T01:34:42;2.73;;;0.40;;
2187;SDS011;1100;52.014;8.540;2022-12-29T01:37:08;2.33;;;0.50;;
2187;SDS011;1100;52.014;8.540;2022-12-29T01:39:33;2.37;;;0.30;;
2187;SDS011;1100;52.014;8.540;2022-12-29T01:41:58;2.25;;;0.40;;
2187;SDS011;1100;52.014;8.540;2022-12-29T01:47:38;1.87;;;0.37;;
2187;SDS011;1100;52.014;8.540;2022-12-29T01:55:30;1.95;;;0.30;;
2187;SDS011;1100;52.014;8.540;2022-12-29T01:58:01;2.72;;;0.40;;
2187;SDS011;1100;52.014;8.540;2022-12-29T02:00:28;1.77;;;0.30;;
2187;SDS011;1100;52.014;8.540;2022-12-29T02:02:54;2.05;;;0.43;;
2187;SDS011;1100;52.014;8.540;2022-12-29T02:05:21;2.10;;;0.30;;
2187;SDS011;1100;52.014;8.540;2022-12-29T02:07:52;1.83;;;0.30;;
2187;SDS011;1100;52.014;8.540;2022-12-29T02:10:19;1.70;;;0.20;;
2187;SDS011;1100;52.014;8.540;2022-12-29T02:12:46;2.58;;;0.30;;
2187;SDS011;1100;52.014;8.540;2022-12-29T02:15:12;1.70;;;0.30;;
2187;SDS011;1100;52.014;8.540;2022-12-29T02:17:41;2.13;;;0.30;;
2187;SDS011;1100;52.014;8.540;2022-12-29T02:31:59;1.90;;;0.30;;
2187;SDS011;1100;52.014;8.540;2022-12-29T02:34:45;1.80;;;0.35;;
2187;SDS011;1100;52.014;8.540;2022-12-29T02:37:25;2.03;;;0.30;;
2187;SDS011;1100;52.014;8.540;2022-12-29T02:42:45;3.15;;;0.40;;
2187;SDS011;1100;52.014;8.540;2022-12-29T02:46:04;2.40;;;0.40;;
2187;SDS011;1100;52.014;8.540;2022-12-29T02:48:45;1.92;;;0.38;;
2187;SDS011;1100;52.014;8.540;2022-12-29T02:51:24;1.87;;;0.40;;
2187;SDS011;1100;52.014;8.540;2022-12-29T02:53:55;1.67;;;0.30;;
2187;SDS011;1100;52.014;8.540;2022-12-29T02:56:41;2.05;;;0.40;;
2187;SDS011;1100;52.014;8.540;2022-12-29T02:59:06;1.40;;;0.30;;
2187;SDS011;1100;52.014;8.540;2022-12-29T03:08:17;1.70;;;0.20;;
2187;SDS011;1100;52.014;8.540;2022-12-29T03:10:37;1.83;;;0.30;;
2187;SDS011;1100;52.014;8.540;2022-12-29T03:24:38;2.08;;;0.20;;
2187;SDS011;1100;52.014;8.540;2022-12-29T03:27:07;1.52;;;0.20;;
2187;SDS011;1100;52.014;8.540;2022-12-29T03:29:39;1.23;;;0.20;;
2187;SDS011;1100;52.014;8.540;2022-12-29T03:32:09;1.50;;;0.25;;
2187;SDS011;1100;52.014;8.540;2022-12-29T03:34:37;1.83;;;0.20;;
2187;SDS011;1100;52.014;8.540;2022-12-29T03:37:11;1.50;;;0.30;;
2187;SDS011;1100;52.014;8.540;2022-12-29T03:39:40;1.38;;;0.20;;
2187;SDS011;1100;52.014;8.540;2022-12-29T03:42:08;1.27;;;0.20;;
2187;SDS011;1100;52.014;8.540;2022-12-29T03:44:39;0.80;;;0.20;;
2187;SDS011;1100;52.014;8.540;2022-12-29T03:47:06;1.70;;;0.27;;
2187;SDS011;1100;52.014;8.540;2022-12-29T03:49:32;2.08;;;0.20;;
2187;SDS011;1100;52.014;8.540;2022-12-29T03:51:58;1.83;;;0.30;;
2187;SDS011;1100;52.014;8.540;2022-12-29T03:54:24;2.23;;;0.27;;
2187;SDS011;1100;52.014;8.540;2022-12-29T03:56:49;1.50;;;0.22;;
2187;SDS011;1100;52.014;8.540;2022-12-29T03:59:15;2.67;;;0.23;;
2187;SDS011;1100;52.014;8.540;2022-12-29T04:01:40;1.93;;;0.37;;
2187;SDS011;1100;52.014;8.540;2022-12-29T04:04:05;1.17;;;0.20;;
2187;SDS011;1100;52.014;8.540;2022-12-29T04:06:31;1.10;;;0.20;;
2187;SDS011;1100;52.014;8.540;2022-12-29T04:08:56;1.13;;;0.20;;
2187;SDS011;1100;52.014;8.540;2022-12-29T04:11:21;1.67;;;0.37;;
2187;SDS011;1100;52.014;8.540;2022-12-29T04:13:47;2.33;;;0.30;;
2187;SDS011;1100;52.014;8.540;2022-12-29T04:16:12;3.93;;;0.27;;
2187;SDS011;1100;52.014;8.540;2022-12-29T04:18:38;1.63;;;0.20;;
2187;SDS011;1100;52.014;8.540;2022-12-29T04:21:03;1.20;;;0.20;;
2187;SDS011;1100;52.014;8.540;2022-12-29T04:23:30;1.80;;;0.20;;
2187;SDS011;1100;52.014;8.540;2022-12-29T04:25:59;2.23;;;0.30;;
2187;SDS011;1100;52.014;8.540;2022-12-29T04:28:25;1.80;;;0.20;;
2187;SDS011;1100;52.014;8.540;2022-12-29T04:30:51;1.60;;;0.22;;
2187;SDS011;1100;52.014;8.540;2022-12-29T04:33:16;1.40;;;0.20;;
2187;SDS011;1100;52.014;8.540;2022-12-29T04:35:42;1.53;;;0.20;;
2187;SDS011;1100;52.014;8.540;2022-12-29T04:38:08;1.40;;;0.28;;
2187;SDS011;1100;52.014;8.540;2022-12-29T04:40:33;2.87;;;0.30;;
2187;SDS011;1100;52.014;8.540;2022-12-29T04:42:59;1.57;;;0.20;;
2187;SDS011;1100;52.014;8.540;2022-12-29T04:45:24;1.15;;;0.20;;
2187;SDS011;1100;52.014;8.540;2022-12-29T04:47:49;2.47;;;0.30;;
2187;SDS011;1100;52.014;8.540;2022-12-29T04:50:15;1.63;;;0.20;;
2187;SDS011;1100;52.014;8.540;2022-12-29T04:52:40;1.43;;;0.20;;
2187;SDS011;1100;52.014;8.540;2022-12-29T04:55:06;2.03;;;0.20;;
2187;SDS011;1100;52.014;8.540;2022-12-29T04:57:31;1.55;;;0.30;;
2187;SDS011;1100;52.014;8.540;2022-12-29T04:59:57;1.10;;;0.20;;
2187;SDS011;1100;52.014;8.540;2022-12-29T05:02:22;2.20;;;0.30;;
2187;SDS011;1100;52.014;8.540;2022-12-29T05:04:47;1.90;;;0.23;;
2187;SDS011;1100;52.014;8.540;2022-12-29T05:07:13;2.33;;;0.30;;
2187;SDS011;1100;52.014;8.540;2022-12-29T05:09:38;1.50;;;0.20;;
2187;SDS011;1100;52.014;8.540;2022-12-29T05:12:03;1.70;;;0.30;;
2187;SDS011;1100;52.014;8.540;2022-12-29T05:14:29;1.43;;;0.23;;
2187;SDS011;1100;52.014;8.540;2022-12-29T05:16:54;1.90;;;0.40;;
2187;SDS011;1100;52.014;8.540;2022-12-29T05:19:20;1.42;;;0.30;;
2187;SDS011;1100;52.014;8.540;2022-12-29T05:21:48;1.77;;;0.30;;
2187;SDS011;1100;52.014;8.540;2022-12-29T05:24:14;2.65;;;0.38;;
2187;SDS011;1100;52.014;8.540;2022-12-29T05:26:40;2.10;;;0.20;;
2187;SDS011;1100;52.014;8.540;2022-12-29T05:29:05;1.88;;;0.30;;
2187;SDS011;1100;52.014;8.540;2022-12-29T05:31:30;2.63;;;0.40;;
2187;SDS011;1100;52.014;8.540;2022-12-29T05:33:56;2.90;;;0.30;;
2187;SDS011;1100;52.014;8.540;2022-12-29T05:36:24;1.35;;;0.25;;
2187;SDS011;1100;52.014;8.540;2022-12-29T05:38:49;2.60;;;0.30;;
2187;SDS011;1100;52.014;8.540;2022-12-29T05:41:15;4.30;;;0.43;;
2187;SDS011;1100;52.014;8.540;2022-12-29T05:43:40;1.60;;;0.20;;
2187;SDS011;1100;52.014;8.540;2022-12-29T05:46:05;2.20;;;0.30;;
2187;SDS011;1100;52.014;8.540;2022-12-29T05:48:31;1.33;;;0.20;;
2187;SDS011;1100;52.014;8.540;2022-12-29T05:50:56;2.37;;;0.30;;
2187;SDS011;1100;52.014;8.540;2022-12-29T05:53:23;1.35;;;0.20;;
2187;SDS011;1100;52.014;8.540;2022-12-29T05:55:48;1.53;;;0.30;;
2187;SDS011;1100;52.014;8.540;2022-12-29T05:58:15;1.48;;;0.20;;
2187;SDS011;1100;52.014;8.540;2022-12-29T06:00:41;1.10;;;0.20;;
2187;SDS011;1100;52.014;8.540;2022-12-29T06:03:06;1.60;;;0.30;;
2187;SDS011;1100;52.014;8.540;2022-12-29T06:05:31;1.03;;;0.20;;
2187;SDS011;1100;52.014;8.540;2022-12-29T06:07:57;1.60;;;0.30;;
2187;SDS011;1100;52.014;8.540;2022-12-29T06:10:22;2.30;;;0.30;;
2187;SDS011;1100;52.014;8.540;2022-12-29T06:12:48;1.70;;;0.20;;
2187;SDS011;1100;52.014;8.540;2022-12-29T06:15:13;1.30;;;0.20;;
2187;SDS011;1100;52.014;8.540;2022-12-29T06:17:39;1.33;;;0.20;;
2187;SDS011;1100;52.014;8.540;2022-12-29T06:20:05;1.50;;;0.30;;
2187;SDS011;1100;52.014;8.540;2022-12-29T06:22:31;1.87;;;0.30;;
2187;SDS011;1100;52.014;8.540;2022-12-29T06:24:57;1.55;;;0.20;;
2187;SDS011;1100;52.014;8.540;2022-12-29T06:27:23;1.77;;;0.30;;
2187;SDS011;1100;52.014;8.540;2022-12-29T06:29:48;2.10;;;0.30;;
2187;SDS011;1100;52.014;8.540;2022-12-29T06:32:14;1.67;;;0.30;;
2187;SDS011;1100;52.014;8.540;2022-12-29T06:34:40;1.90;;;0.30;;
2187;SDS011;1100;52.014;8.540;2022-12-29T06:37:05;4.43;;;0.28;;
2187;SDS011;1100;52.014;8.540;2022-12-29T06:39:31;1.90;;;0.37;;
2187;SDS011;1100;52.014;8.540;2022-12-29T06:41:56;1.98;;;0.20;;
2187;SDS011;1100;52.014;8.540;2022-12-29T06:44:22;1.53;;;0.20;;
2187;SDS011;1100;52.014;8.540;2022-12-29T06:46:47;0.90;;;0.20;;
2187;SDS011;1100;52.014;8.540;2022-12-29T06:49:13;1.87;;;0.30;;
2187;SDS011;1100;52.014;8.540;2022-12-29T06:51:38;2.38;;;0.30;;
2187;SDS011;1100;52.014;8.540;2022-12-29T06:54:04;3.20;;;0.30;;
2187;SDS011;1100;52.014;8.540;2022-12-29T06:56:29;2.13;;;0.20;;
2187;SDS011;1100;52.014;8.540;2022-12-29T06:58:55;2.30;;;0.60;;
2187;SDS011;1100;52.014;8.540;2022-12-29T07:01:20;2.60;;;0.22;;
2187;SDS011;1100;52.014;8.540;2022-12-29T07:03:48;1.93;;;0.30;;
2187;SDS011;1100;52.014;8.540;2022-12-29T07:06:13;2.67;;;0.30;;
2187;SDS011;1100;52.014;8.540;2022-12-29T07:08:38;2.55;;;0.40;;
2187;SDS011;1100;52.014;8.540;2022-12-29T07:11:04;2.23;;;0.40;;
2187;SDS011;1100;52.014;8.540;2022-12-29T07:13:30;2.47;;;0.55;;
2187;SDS011;1100;52.014;8.540;2022-12-29T07:15:55;3.00;;;0.43;;
2187;SDS011;1100;52.014;8.540;2022-12-29T07:18:21;2.40;;;0.50;;
2187;SDS011;1100;52.014;8.540;2022-12-29T07:20:49;3.33;;;0.50;;
2187;SDS011;1100;52.014;8.540;2022-12-29T07:23:14;2.77;;;0.60;;
2187;SDS011;1100;52.014;8.540;2022-12-29T07:25:39;3.43;;;0.60;;
2187;SDS011;1100;52.014;8.540;2022-12-29T07:28:06;4.07;;;0.52;;
2187;SDS011;1100;52.014;8.540;2022-12-29T07:30:31;3.00;;;0.50;;
2187;SDS011;1100;52.014;8.540;2022-12-29T07:32:57;5.93;;;0.70;;
2187;SDS011;1100;52.014;8.540;2022-12-29T07:35:22;4.30;;;0.90;;
2187;SDS011;1100;52.014;8.540;2022-12-29T07:37:48;3.28;;;0.47;;
2187;SDS011;1100;52.014;8.540;2022-12-29T07:40:13;3.03;;;0.50;;
2187;SDS011;1100;52.014;8.540;2022-12-29T07:42:38;3.17;;;0.40;;
2187;SDS011;1100;52.014;8.540;2022-12-29T07:45:04;3.03;;;0.50;;
2187;SDS011;1100;52.014;8.540;2022-12-29T07:47:29;4.60;;;0.50;;
2187;SDS011;1100;52.014;8.540;2022-12-29T07:49:55;3.30;;;0.50;;
2187;SDS011;1100;52.014;8.540;2022-12-29T07:52:20;4.10;;;0.50;;
2187;SDS011;1100;52.014;8.540;2022-12-29T07:54:45;5.27;;;0.47;;
2187;SDS011;1100;52.014;8.540;2022-12-29T07:57:11;2.43;;;0.50;;
2187;SDS011;1100;52.014;8.540;2022-12-29T07:59:36;2.93;;;0.50;;
2187;SDS011;1100;52.014;8.540;2022-12-29T08:02:01;3.47;;;0.47;;
2187;SDS011;1100;52.014;8.540;2022-12-29T08:04:27;3.92;;;0.70;;
2187;SDS011;1100;52.014;8.540;2022-12-29T08:06:52;3.97;;;0.50;;
2187;SDS011;1100;52.014;8.540;2022-12-29T08:09:18;2.50;;;0.40;;
2187;SDS011;1100;52.014;8.540;2022-12-29T08:11:43;2.50;;;0.50;;
2187;SDS011;1100;52.014;8.540;2022-12-29T08:14:09;4.35;;;0.40;;
2187;SDS011;1100;52.014;8.540;2022-12-29T08:16:35;2.47;;;0.50;;
2187;SDS011;1100;52.014;8.540;2022-12-29T08:19:00;3.77;;;0.40;;
2187;SDS011;1100;52.014;8.540;2022-12-29T08:21:27;4.07;;;0.40;;
2187;SDS011;1100;52.014;8.540;2022-12-29T08:23:52;3.47;;;0.40;;
2187;SDS011;1100;52.014;8.540;2022-12-29T08:26:18;2.92;;;0.70;;
2187;SDS011;1100;52.014;8.540;2022-12-29T08:28:43;4.90;;;0.60;;
2187;SDS011;1100;52.014;8.540;2022-12-29T08:31:08;4.37;;;0.33;;
2187;SDS011;1100;52.014;8.540;2022-12-29T08:33:34;1.83;;;0.30;;
2187;SDS011;1100;52.014;8.540;2022-12-29T08:36:00;2.57;;;0.37;;
2187;SDS011;1100;52.014;8.540;2022-12-29T08:38:27;4.60;;;0.55;;
2187;SDS011;1100;52.014;8.540;2022-12-29T08:40:53;3.55;;;0.40;;
2187;SDS011;1100;52.014;8.540;2022-12-29T08:43:19;3.93;;;0.60;;
2187;SDS011;1100;52.014;8.540;2022-12-29T08:45:44;4.50;;;0.40;;
2187;SDS011;1100;52.014;8.540;2022-12-29T08:48:09;2.40;;;0.47;;
2187;SDS011;1100;52.014;8.540;2022-12-29T08:50:35;2.30;;;0.50;;
2187;SDS011;1100;52.014;8.540;2022-12-29T08:53:00;4.57;;;0.57;;
2187;SDS011;1100;52.014;8.540;2022-12-29T08:55:25;6.63;;;0.60;;
2187;SDS011;1100;52.014;8.540;2022-12-29T08:57:51;5.10;;;0.50;;
2187;SDS011;1100;52.014;8.540;2022-12-29T09:00:19;4.80;;;0.50;;
2187;SDS011;1100;52.014;8.540;2022-12-29T09:02:45;2.78;;;0.65;;
2187;SDS011;1100;52.014;8.540;2022-12-29T09:05:11;5.30;;;0.80;;
2187;SDS011;1100;52.014;8.540;2022-12-29T09:07:36;4.13;;;0.60;;
2187;SDS011;1100;52.014;8.540;2022-12-29T09:10:02;3.47;;;0.60;;
2187;SDS011;1100;52.014;8.540;2022-12-29T09:12:29;6.63;;;0.70;;
2187;SDS011;1100;52.014;8.540;2022-12-29T09:14:54;4.30;;;0.50;;
2187;SDS011;1100;52.014;8.540;2022-12-29T09:17:19;3.20;;;0.38;;
2187;SDS011;1100;52.014;8.540;2022-12-29T09:20:03;4.77;;;0.50;;
2187;SDS011;1100;52.014;8.540;2022-12-29T09:22:29;3.15;;;0.40;;
2187;SDS011;1100;52.014;8.540;2022-12-29T09:24:54;4.53;;;0.50;;
2187;SDS011;1100;52.014;8.540;2022-12-29T09:27:20;5.33;;;0.97;;
2187;SDS011;1100;52.014;8.540;2022-12-29T09:29:45;5.70;;;0.70;;
2187;SDS011;1100;52.014;8.540;2022-12-29T09:32:10;4.80;;;0.73;;
2187;SDS011;1100;52.014;8.540;2022-12-29T09:34:36;4.43;;;0.60;;
2187;SDS011;1100;52.014;8.540;2022-12-29T09:37:01;3.87;;;0.80;;
2187;SDS011;1100;52.014;8.540;2022-12-29T09:39:26;5.03;;;0.80;;
2187;SDS011;1100;52.014;8.540;2022-12-29T09:47:29;2.70;;;0.70;;
2187;SDS011;1100;52.014;8.540;2022-12-29T09:52:48;4.20;;;0.50;;
2187;SDS011;1100;52.014;8.540;2022-12-29T09:55:21;4.50;;;0.60;;
2187;SDS011;1100;52.014;8.540;2022-12-29T10:00:21;3.23;;;0.60;;
2187;SDS011;1100;52.014;8.540;2022-12-29T10:03:03;5.15;;;0.60;;
2187;SDS011;1100;52.014;8.540;2022-12-29T10:05:39;7.40;;;1.05;;
2187;SDS011;1100;52.014;8.540;2022-12-29T10:08:22;5.78;;;0.65;;
2187;SDS011;1100;52.014;8.540;2022-12-29T10:24:20;5.20;;;0.80;;
2187;SDS011;1100;52.014;8.540;2022-12-29T10:26:48;6.05;;;0.80;;
2187;SDS011;1100;52.014;8.540;2022-12-29T10:31:47;5.50;;;0.77;;
2187;SDS011;1100;52.014;8.540;2022-12-29T10:34:22;4.07;;;0.50;;
2187;SDS011;1100;52.014;8.540;2022-12-29T10:36:54;4.97;;;0.63;;
2187;SDS011;1100;52.014;8.540;2022-12-29T10:39:42;4.22;;;0.43;;
2187;SDS011;1100;52.014;8.540;2022-12-29T10:42:15;5.35;;;0.60;;
2187;SDS011;1100;52.014;8.540;2022-12-29T10:44:43;4.68;;;0.77;;
2187;SDS011;1100;52.014;8.540;2022-12-29T10:47:13;6.03;;;0.60;;
2187;SDS011;1100;52.014;8.540;2022-12-29T10:49:42;5.82;;;1.05;;
2187;SDS011;1100;52.014;8.540;2022-12-29T10:52:11;2.60;;;0.50;;
2187;SDS011;1100;52.014;8.540;2022-12-29T10:55:00;3.03;;;0.40;;
2187;SDS011;1100;52.014;8.540;2022-12-29T11:00:12;2.58;;;0.38;;
2187;SDS011;1100;52.014;8.540;2022-12-29T11:05:19;4.30;;;0.40;;
2187;SDS011;1100;52.014;8.540;2022-12-29T11:07:53;4.80;;;0.40;;
2187;SDS011;1100;52.014;8.540;2022-12-29T11:12:56;4.10;;;0.40;;
2187;SDS011;1100;52.014;8.540;2022-12-29T11:15:24;3.03;;;0.30;;
2187;SDS011;1100;52.014;8.540;2022-12-29T11:17:51;6.30;;;0.53;;
2187;SDS011;1100;52.014;8.540;2022-12-29T11:23:04;8.73;;;0.60;;
2187;SDS011;1100;52.014;8.540;2022-12-29T11:25:46;3.05;;;0.57;;
2187;SDS011;1100;52.014;8.540;2022-12-29T11:28:15;3.60;;;0.40;;
2187;SDS011;1100;52.014;8.540;2022-12-29T11:30:41;3.70;;;0.50;;
2187;SDS011;1100;52.014;8.540;2022-12-29T11:33:08;5.68;;;0.68;;
2187;SDS011;1100;52.014;8.540;2022-12-29T11:35:35;8.63;;;0.60;;
2187;SDS011;1100;52.014;8.540;2022-12-29T11:38:05;5.68;;;0.68;;
2187;SDS011;1100;52.014;8.540;2022-12-29T11:40:41;4.00;;;0.47;;
2187;SDS011;1100;52.014;8.540;2022-12-29T11:43:06;4.77;;;0.60;;
2187;SDS011;1100;52.014;8.540;2022-12-29T11:45:35;3.93;;;0.30;;
2187;SDS011;1100;52.014;8.540;2022-12-29T11:50:48;3.85;;;0.38;;
2187;SDS011;1100;52.014;8.540;2022-12-29T11:53:19;7.78;;;0.43;;
2187;SDS011;1100;52.014;8.540;2022-12-29T11:55:56;6.47;;;0.50;;
2187;SDS011;1100;52.014;8.540;2022-12-29T11:58:29;4.60;;;0.47;;
2187;SDS011;1100;52.014;8.540;2022-12-29T12:00:57;4.47;;;0.60;;
2187;SDS011;1100;52.014;8.540;2022-12-29T12:03:28;5.55;;;0.70;;
2187;SDS011;1100;52.014;8.540;2022-12-29T12:05:58;4.78;;;0.50;;
2187;SDS011;1100;52.014;8.540;2022-12-29T12:11:30;5.40;;;0.60;;
2187;SDS011;1100;52.014;8.540;2022-12-29T12:16:35;5.55;;;0.77;;
2187;SDS011;1100;52.014;8.540;2022-12-29T12:19:13;5.13;;;0.50;;
2187;SDS011;1100;52.014;8.540;2022-12-29T12:21:43;4.30;;;0.60;;
2187;SDS011;1100;52.014;8.540;2022-12-29T12:29:57;5.32;;;0.60;;
2187;SDS011;1100;52.014;8.540;2022-12-29T12:35:13;3.38;;;0.38;;
2187;SDS011;1100;52.014;8.540;2022-12-29T12:43:47;3.97;;;0.50;;
2187;SDS011;1100;52.014;8.540;2022-12-29T12:54:56;4.13;;;0.50;;
2187;SDS011;1100;52.014;8.540;2022-12-29T13:00:24;4.88;;;0.60;;
2187;SDS011;1100;52.014;8.540;2022-12-29T13:03:10;6.53;;;0.60;;
2187;SDS011;1100;52.014;8.540;2022-12-29T13:08:25;5.28;;;0.70;;
2187;SDS011;1100;52.014;8.540;2022-12-29T13:11:26;6.05;;;0.80;;
2187;SDS011;1100;52.014;8.540;2022-12-29T13:14:05;4.63;;;0.70;;
2187;SDS011;1100;52.014;8.540;2022-12-29T13:30:04;5.15;;;0.68;;
2187;SDS011;1100;52.014;8.540;2022-12-29T13:38:17;6.22;;;0.70;;
2187;SDS011;1100;52.014;8.540;2022-12-29T13:40:49;8.20;;;1.23;;
2187;SDS011;1100;52.014;8.540;2022-12-29T13:43:18;4.63;;;0.93;;
2187;SDS011;1100;52.014;8.540;2022-12-29T13:45:45;6.07;;;0.80;;
2187;SDS011;1100;52.014;8.540;2022-12-29T13:48:22;6.73;;;0.77;;
2187;SDS011;1100;52.014;8.540;2022-12-29T13:50:57;7.35;;;0.60;;
2187;SDS011;1100;52.014;8.540;2022-12-29T13:56:16;6.35;;;0.60;;
2187;SDS011;1100;52.014;8.540;2022-12-29T13:59:03;7.05;;;0.70;;
2187;SDS011;1100;52.014;8.540;2022-12-29T14:01:41;4.67;;;0.60;;
2187;SDS011;1100;52.014;8.540;2022-12-29T14:04:13;7.40;;;0.60;;
2187;SDS011;1100;52.014;8.540;2022-12-29T14:06:46;6.72;;;0.90;;
2187;SDS011;1100;52.014;8.540;2022-12-29T14:09:41;3.97;;;0.60;;
2187;SDS011;1100;52.014;8.540;2022-12-29T14:12:27;4.68;;;0.68;;
2187;SDS011;1100;52.014;8.540;2022-12-29T14:14:56;6.10;;;0.80;;
2187;SDS011;1100;52.014;8.540;2022-12-29T14:17:28;6.03;;;0.90;;
2187;SDS011;1100;52.014;8.540;2022-12-29T14:19:53;9.37;;;0.73;;
2187;SDS011;1100;52.014;8.540;2022-12-29T14:22:23;7.25;;;0.93;;
2187;SDS011;1100;52.014;8.540;2022-12-29T14:24:50;8.38;;;0.88;;
2187;SDS011;1100;52.014;8.540;2022-12-29T14:34:45;5.82;;;0.73;;
2187;SDS011;1100;52.014;8.540;2022-12-29T14:37:24;5.87;;;0.73;;
2187;SDS011;1100;52.014;8.540;2022-12-29T14:42:50;7.47;;;1.00;;
2187;SDS011;1100;52.014;8.540;2022-12-29T14:47:45;5.67;;;1.00;;
2187;SDS011;1100;52.014;8.540;2022-12-29T14:52:54;9.10;;;0.80;;
2187;SDS011;1100;52.014;8.540;2022-12-29T14:58:27;5.83;;;0.77;;
2187;SDS011;1100;52.014;8.540;2022-12-29T15:00:55;4.72;;;0.60;;
2187;SDS011;1100;52.014;8.540;2022-12-29T15:03:28;6.32;;;1.17;;
2187;SDS011;1100;52.014;8.540;2022-12-29T15:05:57;8.32;;;0.95;;
2187;SDS011;1100;52.014;8.540;2022-12-29T15:08:42;8.38;;;1.00;;
2187;SDS011;1100;52.014;8.540;2022-12-29T15:13:44;5.07;;;0.60;;
2187;SDS011;1100;52.014;8.540;2022-12-29T15:16:29;7.32;;;0.65;;
2187;SDS011;1100;52.014;8.540;2022-12-29T15:18:59;6.95;;;1.00;;
2187;SDS011;1100;52.014;8.540;2022-12-29T15:21:32;5.45;;;0.80;;
2187;SDS011;1100;52.014;8.540;2022-12-29T15:23:59;7.53;;;1.20;;
2187;SDS011;1100;52.014;8.540;2022-12-29T15:26:38;6.10;;;0.90;;
2187;SDS011;1100;52.014;8.540;2022-12-29T15:29:05;8.57;;;0.75;;
2187;SDS011;1100;52.014;8.540;2022-12-29T15:31:50;5.60;;;0.68;;
2187;SDS011;1100;52.014;8.540;2022-12-29T15:34:16;6.70;;;0.80;;
2187;SDS011;1100;52.014;8.540;2022-12-29T15:36:46;4.32;;;0.70;;
2187;SDS011;1100;52.014;8.540;2022-12-29T15:39:18;4.93;;;0.50;;
2187;SDS011;1100;52.014;8.540;2022-12-29T15:41:50;7.13;;;0.80;;
2187;SDS011;1100;52.014;8.540;2022-12-29T15:47:05;5.40;;;0.70;;
2187;SDS011;1100;52.014;8.540;2022-12-29T15:49:36;8.13;;;0.77;;
2187;SDS011;1100;52.014;8.540;2022-12-29T15:52:05;6.63;;;0.70;;
2187;SDS011;1100;52.014;8.540;2022-12-29T15:54:32;6.28;;;0.70;;
2187;SDS011;1100;52.014;8.540;2022-12-29T15:56:58;3.57;;;0.60;;
2187;SDS011;1100;52.014;8.540;2022-12-29T16:01:48;8.17;;;0.80;;
2187;SDS011;1100;52.014;8.540;2022-12-29T16:04:14;5.32;;;0.73;;
2187;SDS011;1100;52.014;8.540;2022-12-29T16:06:44;5.57;;;0.70;;
2187;SDS011;1100;52.014;8.540;2022-12-29T16:09:19;6.22;;;0.70;;
2187;SDS011;1100;52.014;8.540;2022-12-29T16:12:04;6.43;;;0.60;;
2187;SDS011;1100;52.014;8.540;2022-12-29T16:14:42;5.30;;;0.90;;
2187;SDS011;1100;52.014;8.540;2022-12-29T16:17:22;5.75;;;0.73;;
2187;SDS011;1100;52.014;8.540;2022-12-29T16:20:00;4.32;;;0.68;;
2187;SDS011;1100;52.014;8.540;2022-12-29T16:22:29;8.95;;;1.05;;
2187;SDS011;1100;52.014;8.540;2022-12-29T16:24:58;3.53;;;0.50;;
2187;SDS011;1100;52.014;8.540;2022-12-29T16:27:36;8.53;;;0.80;;
2187;SDS011;1100;52.014;8.540;2022-12-29T16:30:06;6.43;;;0.90;;
2187;SDS011;1100;52.014;8.540;2022-12-29T16:32:45;4.45;;;0.65;;
2187;SDS011;1100;52.014;8.540;2022-12-29T16:37:44;4.25;;;0.40;;
2187;SDS011;1100;52.014;8.540;2022-12-29T16:42:59;5.90;;;0.90;;
2187;SDS011;1100;52.014;8.540;2022-12-29T16:50:39;5.90;;;0.60;;
2187;SDS011;1100;52.014;8.540;2022-12-29T16:53:06;5.20;;;0.60;;
2187;SDS011;1100;52.014;8.540;2022-12-29T16:55:47;6.60;;;0.80;;
2187;SDS011;1100;52.014;8.540;2022-12-29T16:58:24;6.37;;;0.40;;
2187;SDS011;1100;52.014;8.540;2022-12-29T17:00:54;5.50;;;0.43;;
2187;SDS011;1100;52.014;8.540;2022-12-29T17:03:21;8.20;;;1.55;;
2187;SDS011;1100;52.014;8.540;2022-12-29T17:05:47;7.20;;;0.85;;
2187;SDS011;1100;52.014;8.540;2022-12-29T17:08:17;2.37;;;0.30;;
2187;SDS011;1100;52.014;8.540;2022-12-29T17:10:54;3.90;;;0.60;;
2187;SDS011;1100;52.014;8.540;2022-12-29T17:13:39;3.50;;;0.50;;
2187;SDS011;1100;52.014;8.540;2022-12-29T17:16:05;8.93;;;1.23;;
2187;SDS011;1100;52.014;8.540;2022-12-29T17:18:33;7.70;;;1.60;;
2187;SDS011;1100;52.014;8.540;2022-12-29T17:20:59;3.42;;;0.40;;
2187;SDS011;1100;52.014;8.540;2022-12-29T17:23:24;5.83;;;0.70;;
2187;SDS011;1100;52.014;8.540;2022-12-29T17:25:50;4.20;;;0.60;;
2187;SDS011;1100;52.014;8.540;2022-12-29T17:28:38;9.15;;;2.90;;
2187;SDS011;1100;52.014;8.540;2022-12-29T17:31:04;5.88;;;1.38;;
2187;SDS011;1100;52.014;8.540;2022-12-29T17:33:34;5.03;;;0.70;;
2187;SDS011;1100;52.014;8.540;2022-12-29T17:36:02;5.07;;;0.73;;
2187;SDS011;1100;52.014;8.540;2022-12-29T17:38:28;5.13;;;1.13;;
2187;SDS011;1100;52.014;8.540;2022-12-29T17:40:55;4.65;;;1.10;;
2187;SDS011;1100;52.014;8.540;2022-12-29T17:43:22;5.37;;;1.13;;
2187;SDS011;1100;52.014;8.540;2022-12-29T17:45:49;5.45;;;1.20;;
2187;SDS011;1100;52.014;8.540;2022-12-29T17:48:20;4.45;;;0.75;;
2187;SDS011;1100;52.014;8.540;2022-12-29T17:50:47;7.18;;;1.05;;
2187;SDS011;1100;52.014;8.540;2022-12-29T17:53:16;6.00;;;0.70;;
2187;SDS011;1100;52.014;8.540;2022-12-29T17:55:45;4.85;;;1.00;;
2187;SDS011;1100;52.014;8.540;2022-12-29T17:58:14;5.53;;;0.80;;
2187;SDS011;1100;52.014;8.540;2022-12-29T18:00:41;10.35;;;1.05;;
2187;SDS011;1100;52.014;8.540;2022-12-29T18:03:07;3.97;;;0.50;;
2187;SDS011;1100;52.014;8.540;2022-12-29T18:05:38;7.85;;;0.70;;
2187;SDS011;1100;52.014;8.540;2022-12-29T18:08:03;6.63;;;0.60;;
2187;SDS011;1100;52.014;8.540;2022-12-29T18:10:29;5.60;;;0.70;;
2187;SDS011;1100;52.014;8.540;2022-12-29T18:12:57;8.05;;;0.60;;
2187;SDS011;1100;52.014;8.540;2022-12-29T18:15:27;6.20;;;0.60;;
2187;SDS011;1100;52.014;8.540;2022-12-29T18:17:59;6.50;;;1.25;;
2187;SDS011;1100;52.014;8.540;2022-12-29T18:20:27;7.95;;;1.08;;
2187;SDS011;1100;52.014;8.540;2022-12-29T18:22:53;6.20;;;0.63;;